^^
Saratoga-Weather Station Historical Data
Daily Summary for March 2, 2020 Units:  Metric    English   Both
Daily Weekly Monthly Yearly Custom
  High: Low: Average:
Temperature: 3.8 °C 1.7 °C 2.7 °C
Dew Point: 3.4 °C 1 °C 2 °C
Humidity: 97% 91% 95%
Wind Speed: 9.7km/h 0km/h 0.7km/h
Wind Gust: 11.3km/h - -
Wind- - East
Pressure: 1018.0 hPa 1012.5 hPa -
Precipitation: 0.5 mm    
Historical Graphs
 
 
Tabular Data for March 2, 2020
Time Temperature Dew Point Pressure Wind Wind Speed Wind Gust Humidity Rainfall Rate (Hourly) solar
00:04 3.8 °C 3.4 °C 1018.0 hPa East 1.4 km/h 3.2 km/h 97% 0.0 mm 0 W/m2
00:09 3.8 °C 3.4 °C 1018.0 hPa East 3.2 km/h 6.4 km/h 97% 0.0 mm 0 W/m2
00:14 3.8 °C 3.4 °C 1018.0 hPa ENE 1.4 km/h 6.4 km/h 97% 0.0 mm 0 W/m2
00:19 3.8 °C 3.4 °C 1018.0 hPa ESE 1.4 km/h 4.8 km/h 97% 0.0 mm 0 W/m2
00:24 3.7 °C 3.3 °C 1018.0 hPa East 3.2 km/h 3.2 km/h 97% 0.0 mm 0 W/m2
00:29 3.7 °C 3.1 °C 1018.0 hPa East 1.4 km/h 3.2 km/h 96% 0.0 mm 0 W/m2
00:34 3.7 °C 3.1 °C 1018.0 hPa Calm     96% 0.0 mm 0 W/m2
00:39 3.7 °C 3.1 °C 1018.0 hPa ESE 1.4 km/h 4.8 km/h 96% 0.0 mm 0 W/m2
00:44 3.7 °C 3.1 °C 1018.0 hPa Calm   3.2 km/h 96% 0.0 mm 0 W/m2
00:49 3.7 °C 3.1 °C 1018.0 hPa East 1.4 km/h 1.6 km/h 96% 0.0 mm 0 W/m2
00:54 3.7 °C 3.1 °C 1018.0 hPa ENE 1.4 km/h 3.2 km/h 96% 0.0 mm 0 W/m2
00:59 3.7 °C 3.1 °C 1018.0 hPa Calm     96% 0.0 mm 0 W/m2
01:04 3.7 °C 3.1 °C 1018.0 hPa Calm     96% 0.0 mm 0 W/m2
01:09 3.7 °C 3.1 °C 1018.0 hPa ENE 1.4 km/h 1.6 km/h 96% 0.0 mm 0 W/m2
01:14 3.6 °C 3 °C 1018.0 hPa SE 1.4 km/h 3.2 km/h 96% 0.0 mm 0 W/m2
01:19 3.6 °C 3 °C 1018.0 hPa Calm   1.6 km/h 96% 0.0 mm 0 W/m2
01:24 3.6 °C 3 °C 1017.6 hPa Calm   4.8 km/h 96% 0.0 mm 0 W/m2
01:29 3.6 °C 3 °C 1018.0 hPa Calm   1.6 km/h 96% 0.0 mm 0 W/m2
01:34 3.5 °C 2.9 °C 1017.6 hPa Calm   4.8 km/h 96% 0.0 mm 0 W/m2
01:39 3.4 °C 2.8 °C 1017.6 hPa Calm     96% 0.0 mm 0 W/m2
01:44 3.4 °C 2.8 °C 1017.6 hPa Calm     96% 0.0 mm 0 W/m2
01:49 3.4 °C 2.8 °C 1017.6 hPa Calm     96% 0.0 mm 0 W/m2
01:54 3.3 °C 2.7 °C 1017.6 hPa Calm     96% 0.0 mm 0 W/m2
01:59 3.3 °C 2.7 °C 1017.6 hPa Calm   4.8 km/h 96% 0.0 mm 0 W/m2
02:04 3.3 °C 2.7 °C 1017.6 hPa Calm   1.6 km/h 96% 0.0 mm 0 W/m2
02:09 3.3 °C 2.7 °C 1017.6 hPa Calm     96% 0.0 mm 0 W/m2
02:14 3.3 °C 2.7 °C 1017.6 hPa Calm     96% 0.0 mm 0 W/m2
02:19 3.3 °C 2.7 °C 1017.6 hPa Calm     96% 0.0 mm 0 W/m2
02:24 3.3 °C 2.7 °C 1017.6 hPa Calm     96% 0.0 mm 0 W/m2
02:29 3.2 °C 2.6 °C 1017.6 hPa Calm     96% 0.0 mm 0 W/m2
02:34 3.1 °C 2.5 °C 1018.0 hPa Calm     96% 0.0 mm 0 W/m2
02:39 3 °C 2.4 °C 1018.0 hPa Calm     96% 0.0 mm 0 W/m2
02:44 2.9 °C 2.3 °C 1018.0 hPa Calm     96% 0.0 mm 0 W/m2
02:49 2.9 °C 2.3 °C 1018.0 hPa Calm   3.2 km/h 96% 0.0 mm 0 W/m2
02:54 2.9 °C 2.3 °C 1018.0 hPa East 1.4 km/h 3.2 km/h 96% 0.0 mm 0 W/m2
02:59 3 °C 2.4 °C 1018.0 hPa SE 1.4 km/h 4.8 km/h 96% 0.0 mm 0 W/m2
03:04 3 °C 2.4 °C 1018.0 hPa East 1.4 km/h 11.3 km/h 96% 0.0 mm 0 W/m2
03:09 2.9 °C 2.3 °C 1018.0 hPa SE 3.2 km/h 4.8 km/h 96% 0.0 mm 0 W/m2
03:14 2.9 °C 2.3 °C 1018.0 hPa ESE 1.4 km/h 8 km/h 96% 0.0 mm 0 W/m2
03:19 2.9 °C 2.3 °C 1018.0 hPa ESE 1.4 km/h 3.2 km/h 96% 0.0 mm 0 W/m2
03:24 2.8 °C 2.2 °C 1018.0 hPa Calm   4.8 km/h 96% 0.0 mm 0 W/m2
03:30 2.8 °C 2.2 °C 1018.0 hPa Calm   1.6 km/h 96% 0.0 mm 0 W/m2
03:35 2.7 °C 2.1 °C 1017.6 hPa Calm   4.8 km/h 96% 0.0 mm 0 W/m2
03:40 2.7 °C 2.1 °C 1018.0 hPa East 1.4 km/h 3.2 km/h 96% 0.0 mm 0 W/m2
03:45 2.7 °C 2.1 °C 1018.0 hPa Calm   3.2 km/h 96% 0.0 mm 0 W/m2
03:50 2.7 °C 2.1 °C 1018.0 hPa Calm     96% 0.0 mm 0 W/m2
03:55 2.6 °C 2 °C 1017.6 hPa Calm   3.2 km/h 96% 0.0 mm 0 W/m2
04:00 2.6 °C 2 °C 1018.0 hPa Calm     96% 0.0 mm 0 W/m2
04:05 2.6 °C 2 °C 1018.0 hPa Calm   1.6 km/h 96% 0.0 mm 0 W/m2
04:10 2.6 °C 2 °C 1018.0 hPa Calm     96% 0.0 mm 0 W/m2
04:15 2.6 °C 2 °C 1018.0 hPa Calm     96% 0.0 mm 0 W/m2
04:20 2.6 °C 2 °C 1018.0 hPa Calm     96% 0.0 mm 0 W/m2
04:25 2.7 °C 2.1 °C 1018.0 hPa Calm     96% 0.0 mm 0 W/m2
04:30 2.6 °C 2 °C 1018.0 hPa Calm     96% 0.0 mm 0 W/m2
04:35 2.7 °C 2.1 °C 1018.0 hPa Calm     96% 0.0 mm 0 W/m2
04:40 2.7 °C 2.1 °C 1018.0 hPa Calm   1.6 km/h 96% 0.0 mm 0 W/m2
04:45 2.7 °C 2.1 °C 1018.0 hPa Calm     96% 0.0 mm 0 W/m2
04:50 2.7 °C 2.1 °C 1018.0 hPa Calm     96% 0.0 mm 0 W/m2
04:55 2.7 °C 2.1 °C 1018.0 hPa Calm     96% 0.0 mm 0 W/m2
05:00 2.7 °C 2.1 °C 1018.0 hPa Calm     96% 0.0 mm 0 W/m2
05:05 2.7 °C 2.1 °C 1018.0 hPa Calm     96% 0.0 mm 0 W/m2
05:10 2.7 °C 2.1 °C 1018.0 hPa Calm     96% 0.0 mm 0 W/m2
05:15 2.7 °C 2.1 °C 1018.0 hPa Calm     96% 0.0 mm 0 W/m2
05:20 2.7 °C 2.1 °C 1018.0 hPa Calm     96% 0.0 mm 0 W/m2
05:25 2.7 °C 2.1 °C 1017.6 hPa Calm     96% 0.0 mm 0 W/m2
05:30 2.7 °C 2.1 °C 1017.6 hPa Calm     96% 0.0 mm 0 W/m2
05:35 2.7 °C 2.1 °C 1017.6 hPa Calm     96% 0.0 mm 0 W/m2
05:40 2.7 °C 2.3 °C 1017.6 hPa Calm     97% 0.0 mm 0 W/m2
05:45 2.7 °C 2.3 °C 1017.6 hPa Calm     97% 0.0 mm 0 W/m2
05:50 2.7 °C 2.3 °C 1017.6 hPa Calm     97% 0.0 mm 0 W/m2
05:55 2.7 °C 2.3 °C 1017.6 hPa Calm     97% 0.0 mm 0 W/m2
06:00 2.8 °C 2.4 °C 1017.6 hPa Calm     97% 0.0 mm 0 W/m2
06:05 2.8 °C 2.4 °C 1017.6 hPa Calm     97% 0.0 mm 0 W/m2
06:10 2.8 °C 2.4 °C 1017.6 hPa ESE 1.4 km/h 1.6 km/h 97% 0.0 mm 0 W/m2
06:15 2.8 °C 2.4 °C 1017.6 hPa Calm     97% 0.0 mm 0 W/m2
06:20 2.8 °C 2.4 °C 1017.6 hPa Calm   1.6 km/h 97% 0.0 mm 0 W/m2
06:25 2.8 °C 2.4 °C 1017.6 hPa Calm     97% 0.0 mm 0 W/m2
06:30 2.8 °C 2.4 °C 1017.6 hPa Calm     97% 0.0 mm 0 W/m2
06:35 2.7 °C 2.3 °C 1017.6 hPa Calm     97% 0.0 mm 0 W/m2
06:40 2.8 °C 2.4 °C 1017.6 hPa Calm   3.2 km/h 97% 0.0 mm 0 W/m2
06:45 2.8 °C 2.4 °C 1017.3 hPa Calm   1.6 km/h 97% 0.0 mm 0 W/m2
06:50 2.8 °C 2.4 °C 1017.3 hPa Calm   1.6 km/h 97% 0.0 mm 0 W/m2
06:55 2.8 °C 2.4 °C 1017.3 hPa Calm     97% 0.0 mm 0 W/m2
07:00 2.8 °C 2.4 °C 1017.3 hPa Calm   1.6 km/h 97% 0.0 mm 0 W/m2
07:05 2.8 °C 2.4 °C 1017.3 hPa Calm   1.6 km/h 97% 0.0 mm 0 W/m2
07:10 2.8 °C 2.4 °C 1017.3 hPa Calm     97% 0.0 mm 0 W/m2
07:15 2.8 °C 2.4 °C 1017.3 hPa Calm   1.6 km/h 97% 0.0 mm 0 W/m2
07:20 2.8 °C 2.4 °C 1017.3 hPa Calm     97% 0.0 mm 0 W/m2
07:25 2.8 °C 2.4 °C 1017.3 hPa Calm   3.2 km/h 97% 0.0 mm 0 W/m2
07:30 2.8 °C 2.4 °C 1017.3 hPa Calm   1.6 km/h 97% 0.0 mm 0 W/m2
07:35 2.8 °C 2.4 °C 1017.3 hPa Calm   3.2 km/h 97% 0.0 mm 0 W/m2
07:40 2.8 °C 2.4 °C 1017.3 hPa Calm     97% 0.0 mm 0 W/m2
07:45 2.8 °C 2.4 °C 1017.3 hPa ESE 1.4 km/h 3.2 km/h 97% 0.0 mm 0 W/m2
07:50 2.8 °C 2.4 °C 1017.3 hPa Calm   3.2 km/h 97% 0.0 mm 0 W/m2
07:55 2.8 °C 2.2 °C 1017.3 hPa Calm   1.6 km/h 96% 0.0 mm 0 W/m2
08:00 2.8 °C 2.2 °C 1017.3 hPa Calm     96% 0.0 mm 0 W/m2
08:05 2.8 °C 2.2 °C 1017.3 hPa Calm     96% 0.0 mm 0 W/m2
08:10 2.8 °C 2.2 °C 1017.3 hPa Calm     96% 0.0 mm 0 W/m2
08:15 2.8 °C 2.2 °C 1017.3 hPa Calm     96% 0.0 mm 0 W/m2
08:20 2.8 °C 2.2 °C 1017.3 hPa Calm     96% 0.0 mm 0 W/m2
08:25 2.8 °C 2.2 °C 1017.3 hPa Calm   1.6 km/h 96% 0.0 mm 0 W/m2
08:30 2.8 °C 2.4 °C 1017.3 hPa Calm     97% 0.0 mm 0 W/m2
08:35 2.8 °C 2.4 °C 1017.3 hPa ESE 1.4 km/h 1.6 km/h 97% 0.0 mm 0 W/m2
10:00 3.1 °C 2.5 °C 1017.3 hPa ESE 1.4 km/h 3.2 km/h 96% 0.0 mm 26 W/m2
10:05 3.1 °C 2.5 °C 1017.3 hPa Calm     96% 0.0 mm 30 W/m2
10:10 3.1 °C 2.5 °C 1017.3 hPa ESE 1.4 km/h 3.2 km/h 96% 0.0 mm 18 W/m2
10:15 3.2 °C 2.6 °C 1017.3 hPa Calm   1.6 km/h 96% 0.0 mm 35 W/m2
10:20 3.2 °C 2.6 °C 1016.9 hPa Calm   1.6 km/h 96% 0.0 mm 49 W/m2
10:25 3.2 °C 2.6 °C 1016.9 hPa Calm   1.6 km/h 96% 0.0 mm 49 W/m2
10:30 3.2 °C 2.6 °C 1017.3 hPa East 1.4 km/h 6.4 km/h 96% 0.0 mm 39 W/m2
10:35 3.2 °C 2.6 °C 1017.3 hPa ESE 1.4 km/h 3.2 km/h 96% 0.0 mm 32 W/m2
10:40 3.2 °C 2.6 °C 1017.3 hPa Calm   6.4 km/h 96% 0.0 mm 39 W/m2
10:45 3.3 °C 2.7 °C 1016.9 hPa NE 1.4 km/h 3.2 km/h 96% 0.0 mm 44 W/m2
10:50 3.3 °C 2.6 °C 1016.9 hPa NE 1.4 km/h 6.4 km/h 95% 0.0 mm 35 W/m2
10:55 3.3 °C 2.6 °C 1016.9 hPa East 3.2 km/h 3.2 km/h 95% 0.0 mm 44 W/m2
11:00 3.4 °C 2.7 °C 1016.9 hPa ESE 3.2 km/h 4.8 km/h 95% 0.0 mm 49 W/m2
11:05 3.4 °C 2.7 °C 1016.9 hPa ESE 1.4 km/h 3.2 km/h 95% 0.0 mm 54 W/m2
11:10 3.4 °C 2.7 °C 1016.9 hPa East 1.4 km/h 6.4 km/h 95% 0.0 mm 51 W/m2
11:15 3.4 °C 2.5 °C 1016.9 hPa Calm   3.2 km/h 94% 0.0 mm 42 W/m2
11:20 3.5 °C 2.6 °C 1016.9 hPa Calm   6.4 km/h 94% 0.0 mm 56 W/m2
11:25 3.5 °C 2.6 °C 1016.9 hPa East 3.2 km/h 3.2 km/h 94% 0.0 mm 44 W/m2
11:30 3.5 °C 2.6 °C 1016.9 hPa East 4.7 km/h 6.4 km/h 94% 0.0 mm 44 W/m2
11:35 3.5 °C 2.6 °C 1016.6 hPa ESE 1.4 km/h 4.8 km/h 94% 0.0 mm 39 W/m2
11:40 3.5 °C 2.6 °C 1016.6 hPa East 1.4 km/h 3.2 km/h 94% 0.0 mm 37 W/m2
11:45 3.4 °C 2.4 °C 1016.6 hPa Calm   1.6 km/h 93% 0.0 mm 42 W/m2
11:50 3.4 °C 2.4 °C 1016.6 hPa Calm   6.4 km/h 93% 0.0 mm 39 W/m2
11:55 3.4 °C 2.4 °C 1016.3 hPa Calm   3.2 km/h 93% 0.0 mm 33 W/m2
12:00 3.4 °C 2.4 °C 1016.3 hPa Calm   6.4 km/h 93% 0.0 mm 37 W/m2
12:05 3.4 °C 2.4 °C 1016.3 hPa NE 3.2 km/h 6.4 km/h 93% 0.0 mm 39 W/m2
12:10 3.4 °C 2.4 °C 1016.3 hPa Calm   4.8 km/h 93% 0.0 mm 23 W/m2
12:15 3.4 °C 2.4 °C 1016.3 hPa Calm   6.4 km/h 93% 0.0 mm 28 W/m2
12:20 3.4 °C 2.4 °C 1015.9 hPa East 3.2 km/h 3.2 km/h 93% 0.0 mm 26 W/m2
12:25 3.4 °C 2.4 °C 1015.9 hPa East 1.4 km/h 3.2 km/h 93% 0.0 mm 28 W/m2
12:30 3.4 °C 2.4 °C 1015.9 hPa Calm   3.2 km/h 93% 0.0 mm 28 W/m2
12:35 3.4 °C 2.4 °C 1015.6 hPa East 4.7 km/h 9.7 km/h 93% 0.0 mm 26 W/m2
12:40 3.3 °C 2.1 °C 1015.6 hPa ESE 1.4 km/h 8 km/h 92% 0.0 mm 28 W/m2
12:45 3.3 °C 2.1 °C 1015.6 hPa East 1.4 km/h 4.8 km/h 92% 0.0 mm 28 W/m2
12:50 3.3 °C 2.1 °C 1015.6 hPa East 3.2 km/h 3.2 km/h 92% 0.0 mm 30 W/m2
12:55 3.2 °C 2 °C 1015.6 hPa East 1.4 km/h 4.8 km/h 92% 0.0 mm 32 W/m2
13:01 3.2 °C 2 °C 1015.2 hPa ENE 1.4 km/h 1.6 km/h 92% 0.0 mm 28 W/m2
13:06 3.2 °C 2 °C 1015.6 hPa SE 3.2 km/h 4.8 km/h 92% 0.0 mm 26 W/m2
13:11 3.2 °C 2 °C 1015.6 hPa East 6.4 km/h 6.4 km/h 92% 0.0 mm 25 W/m2
13:16 3.2 °C 2 °C 1015.6 hPa ESE 1.4 km/h 1.6 km/h 92% 0.0 mm 25 W/m2
13:21 3.2 °C 2 °C 1015.6 hPa East 3.2 km/h 3.2 km/h 92% 0.0 mm 26 W/m2
13:26 3.2 °C 2 °C 1015.6 hPa East 3.2 km/h 4.8 km/h 92% 0.0 mm 26 W/m2
13:31 3.2 °C 2 °C 1015.6 hPa ENE 4.7 km/h 4.8 km/h 92% 0.0 mm 26 W/m2
13:36 3.2 °C 1.9 °C 1015.2 hPa Calm   4.8 km/h 91% 0.0 mm 25 W/m2
13:41 3.2 °C 2 °C 1015.2 hPa Calm   1.6 km/h 92% 0.0 mm 26 W/m2
13:46 3.2 °C 2 °C 1015.2 hPa Calm   4.8 km/h 92% 0.0 mm 26 W/m2
13:51 3.2 °C 2 °C 1015.2 hPa East 3.2 km/h 3.2 km/h 92% 0.0 mm 26 W/m2
13:56 3.2 °C 2 °C 1014.9 hPa ENE 1.4 km/h 3.2 km/h 92% 0.0 mm 28 W/m2
14:01 3.2 °C 2 °C 1014.9 hPa Calm   1.6 km/h 92% 0.0 mm 25 W/m2
14:06 3.2 °C 2 °C 1014.9 hPa Calm   1.6 km/h 92% 0.0 mm 25 W/m2
14:11 3.2 °C 2 °C 1014.9 hPa SE 3.2 km/h 3.2 km/h 92% 0.0 mm 25 W/m2
14:16 3.2 °C 2 °C 1014.9 hPa Calm   1.6 km/h 92% 0.0 mm 23 W/m2
14:21 3.2 °C 2 °C 1014.9 hPa Calm     92% 0.0 mm 21 W/m2
14:26 3.1 °C 1.9 °C 1014.9 hPa ESE 1.4 km/h 3.2 km/h 92% 0.0 mm 21 W/m2
14:31 3.1 °C 1.9 °C 1014.9 hPa Calm     92% 0.0 mm 21 W/m2
14:36 3.1 °C 1.9 °C 1014.9 hPa ESE 1.4 km/h 3.2 km/h 92% 0.0 mm 19 W/m2
14:43 3.1 °C 1.9 °C 1014.9 hPa Calm   3.2 km/h 92% 0.0 mm 19 W/m2
14:46 3 °C 1.8 °C 1014.9 hPa Calm   4.8 km/h 92% 0.0 mm 18 W/m2
14:51 3 °C 1.8 °C 1014.9 hPa ESE 1.4 km/h 1.6 km/h 92% 0.0 mm 16 W/m2
14:56 3 °C 1.8 °C 1014.9 hPa Calm   1.6 km/h 92% 0.0 mm 19 W/m2
15:01 2.9 °C 1.7 °C 1014.9 hPa ESE 1.4 km/h 1.6 km/h 92% 0.0 mm 19 W/m2
15:06 2.9 °C 1.7 °C 1014.9 hPa Calm   1.6 km/h 92% 0.0 mm 16 W/m2
15:11 2.9 °C 1.7 °C 1014.9 hPa Calm     92% 0.0 mm 18 W/m2
15:16 2.9 °C 1.7 °C 1014.9 hPa Calm   1.6 km/h 92% 0.0 mm 19 W/m2
15:21 2.9 °C 1.7 °C 1014.9 hPa ESE 3.2 km/h 3.2 km/h 92% 0.0 mm 23 W/m2
15:26 2.9 °C 1.7 °C 1014.9 hPa East 3.2 km/h 4.8 km/h 92% 0.0 mm 21 W/m2
15:31 2.9 °C 1.7 °C 1014.9 hPa Calm     92% 0.0 mm 18 W/m2
15:36 2.9 °C 1.7 °C 1014.9 hPa East 1.4 km/h 4.8 km/h 92% 0.0 mm 14 W/m2
15:41 2.9 °C 1.7 °C 1014.6 hPa Calm   4.8 km/h 92% 0.0 mm 12 W/m2
15:46 2.9 °C 1.7 °C 1014.6 hPa East 1.4 km/h 1.6 km/h 92% 0.0 mm 16 W/m2
15:51 2.9 °C 1.7 °C 1014.6 hPa Calm   3.2 km/h 92% 0.0 mm 19 W/m2
15:56 2.9 °C 1.7 °C 1014.6 hPa ESE 1.4 km/h 3.2 km/h 92% 0.0 mm 9 W/m2
16:01 2.9 °C 1.9 °C 1014.6 hPa East 3.2 km/h 4.8 km/h 93% 0.0 mm 9 W/m2
16:06 2.8 °C 1.6 °C 1014.6 hPa ESE 1.4 km/h 3.2 km/h 92% 0.0 mm 7 W/m2
16:11 2.8 °C 1.8 °C 1014.6 hPa ESE 3.2 km/h 4.8 km/h 93% 0.0 mm 9 W/m2
16:16 2.8 °C 1.8 °C 1014.6 hPa ESE 9.7 km/h 9.7 km/h 93% 0.0 mm 7 W/m2
16:21 2.8 °C 1.8 °C 1014.6 hPa ESE 1.4 km/h 4.8 km/h 93% 0.0 mm 5 W/m2
16:26 2.7 °C 1.7 °C 1014.6 hPa ESE 3.2 km/h 6.4 km/h 93% 0.0 mm 5 W/m2
16:31 2.7 °C 1.7 °C 1014.6 hPa ENE 3.2 km/h 6.4 km/h 93% 0.0 mm 0 W/m2
16:36 2.6 °C 1.7 °C 1014.6 hPa Calm   4.8 km/h 94% 0.0 mm 0 W/m2
16:41 2.6 °C 1.6 °C 1014.2 hPa Calm   3.2 km/h 93% 0.0 mm 0 W/m2
16:46 2.6 °C 1.7 °C 1014.2 hPa Calm   4.8 km/h 94% 0.0 mm 0 W/m2
16:51 2.5 °C 1.6 °C 1014.6 hPa Calm   1.6 km/h 94% 0.0 mm 0 W/m2
16:56 2.4 °C 1.5 °C 1014.6 hPa East 3.2 km/h 4.8 km/h 94% 0.0 mm 0 W/m2
17:01 2.4 °C 1.5 °C 1014.6 hPa Calm   3.2 km/h 94% 0.0 mm 0 W/m2
17:06 2.4 °C 1.5 °C 1014.6 hPa ESE 1.4 km/h 3.2 km/h 94% 0.0 mm 0 W/m2
17:11 2.4 °C 1.5 °C 1014.6 hPa ESE 1.4 km/h 1.6 km/h 94% 0.0 mm 0 W/m2
17:16 2.4 °C 1.5 °C 1014.2 hPa Calm   1.6 km/h 94% 0.0 mm 0 W/m2
17:21 2.4 °C 1.5 °C 1014.6 hPa ESE 1.4 km/h 3.2 km/h 94% 0.0 mm 0 W/m2
17:26 2.3 °C 1.4 °C 1014.6 hPa Calm     94% 0.0 mm 0 W/m2
17:31 2.3 °C 1.4 °C 1014.2 hPa Calm     94% 0.0 mm 0 W/m2
17:36 2.3 °C 1.4 °C 1014.2 hPa Calm   1.6 km/h 94% 0.0 mm 0 W/m2
17:41 2.3 °C 1.4 °C 1014.2 hPa ESE 1.4 km/h 3.2 km/h 94% 0.0 mm 0 W/m2
17:46 2.4 °C 1.5 °C 1014.2 hPa Calm   3.2 km/h 94% 0.0 mm 0 W/m2
17:51 2.4 °C 1.5 °C 1013.9 hPa ESE 1.4 km/h 1.6 km/h 94% 0.0 mm 0 W/m2
17:56 2.4 °C 1.5 °C 1014.2 hPa Calm   3.2 km/h 94% 0.0 mm 0 W/m2
18:01 2.3 °C 1.4 °C 1014.2 hPa ESE 3.2 km/h 3.2 km/h 94% 0.0 mm 0 W/m2
18:06 2.3 °C 1.4 °C 1013.9 hPa East 1.4 km/h 3.2 km/h 94% 0.0 mm 0 W/m2
18:11 2.3 °C 1.4 °C 1014.2 hPa Calm     94% 0.0 mm 0 W/m2
18:16 2.2 °C 1.3 °C 1014.2 hPa Calm   1.6 km/h 94% 0.0 mm 0 W/m2
18:21 2.2 °C 1.3 °C 1014.2 hPa ESE 3.2 km/h 4.8 km/h 94% 0.0 mm 0 W/m2
18:26 2.2 °C 1.3 °C 1014.2 hPa Calm     94% 0.0 mm 0 W/m2
18:31 2.2 °C 1.3 °C 1014.2 hPa Calm   1.6 km/h 94% 0.0 mm 0 W/m2
18:36 2.2 °C 1.5 °C 1014.2 hPa ESE 1.4 km/h 3.2 km/h 95% 0.0 mm 0 W/m2
18:41 2.2 °C 1.3 °C 1014.2 hPa SE 1.4 km/h 3.2 km/h 94% 0.0 mm 0 W/m2
18:46 2.2 °C 1.3 °C 1014.2 hPa ESE 1.4 km/h 3.2 km/h 94% 0.0 mm 0 W/m2
18:51 2.1 °C 1.4 °C 1014.2 hPa Calm   1.6 km/h 95% 0.0 mm 0 W/m2
18:56 2.1 °C 1.4 °C 1014.2 hPa Calm   1.6 km/h 95% 0.0 mm 0 W/m2
19:01 2.1 °C 1.4 °C 1014.2 hPa Calm   4.8 km/h 95% 0.0 mm 0 W/m2
19:06 2 °C 1.3 °C 1014.2 hPa Calm   1.6 km/h 95% 0.0 mm 0 W/m2
19:11 2 °C 1.3 °C 1014.2 hPa Calm   4.8 km/h 95% 0.0 mm 0 W/m2
19:16 1.9 °C 1.2 °C 1014.2 hPa East 1.4 km/h 3.2 km/h 95% 0.0 mm 0 W/m2
19:21 1.9 °C 1.2 °C 1013.9 hPa Calm     95% 0.0 mm 0 W/m2
19:26 1.9 °C 1.2 °C 1013.9 hPa Calm   1.6 km/h 95% 0.0 mm 0 W/m2
19:31 1.9 °C 1.2 °C 1013.9 hPa Calm   3.2 km/h 95% 0.0 mm 0 W/m2
19:36 1.9 °C 1.2 °C 1013.9 hPa Calm   1.6 km/h 95% 0.0 mm 0 W/m2
19:41 1.9 °C 1.2 °C 1013.9 hPa Calm   3.2 km/h 95% 0.0 mm 0 W/m2
19:46 1.8 °C 1.1 °C 1013.9 hPa Calm   4.8 km/h 95% 0.0 mm 0 W/m2
19:52 1.8 °C 1.1 °C 1013.9 hPa Calm   3.2 km/h 95% 0.0 mm 0 W/m2
19:57 1.8 °C 1.1 °C 1013.9 hPa Calm     95% 0.0 mm 0 W/m2
20:02 1.8 °C 1.1 °C 1013.9 hPa Calm     95% 0.0 mm 0 W/m2
20:07 1.8 °C 1.1 °C 1013.9 hPa Calm     95% 0.0 mm 0 W/m2
20:12 1.8 °C 1.1 °C 1013.5 hPa East 3.2 km/h 3.2 km/h 95% 0.0 mm 0 W/m2
20:17 1.8 °C 1.1 °C 1013.5 hPa Calm   3.2 km/h 95% 0.0 mm 0 W/m2
20:22 1.8 °C 1.1 °C 1013.5 hPa Calm   3.2 km/h 95% 0.0 mm 0 W/m2
20:27 1.8 °C 1.1 °C 1013.5 hPa Calm     95% 0.0 mm 0 W/m2
20:32 1.8 °C 1.1 °C 1013.5 hPa Calm     95% 0.0 mm 0 W/m2
20:37 1.8 °C 1.1 °C 1013.5 hPa Calm     95% 0.0 mm 0 W/m2
20:42 1.8 °C 1.1 °C 1013.5 hPa Calm     95% 0.0 mm 0 W/m2
20:47 1.8 °C 1.1 °C 1013.5 hPa Calm     95% 0.0 mm 0 W/m2
20:52 1.8 °C 1.1 °C 1013.5 hPa Calm     95% 0.0 mm 0 W/m2
20:57 1.8 °C 1.1 °C 1013.5 hPa Calm     95% 0.0 mm 0 W/m2
21:02 1.8 °C 1.1 °C 1013.5 hPa Calm     95% 0.0 mm 0 W/m2
21:07 1.8 °C 1.1 °C 1013.5 hPa ESE 1.4 km/h 1.6 km/h 95% 0.0 mm 0 W/m2
21:12 1.8 °C 1.1 °C 1013.5 hPa Calm     95% 0.0 mm 0 W/m2
21:17 1.8 °C 1.1 °C 1013.5 hPa Calm   3.2 km/h 95% 0.0 mm 0 W/m2
21:22 1.8 °C 1.1 °C 1013.5 hPa ESE 1.4 km/h 3.2 km/h 95% 0.0 mm 0 W/m2
21:27 1.8 °C 1.1 °C 1013.5 hPa ESE 1.4 km/h 3.2 km/h 95% 0.0 mm 0 W/m2
21:32 1.8 °C 1.1 °C 1013.5 hPa Calm   3.2 km/h 95% 0.0 mm 0 W/m2
21:37 1.9 °C 1.2 °C 1013.5 hPa Calm     95% 0.0 mm 0 W/m2
21:42 1.9 °C 1.2 °C 1013.2 hPa Calm   3.2 km/h 95% 0.0 mm 0 W/m2
21:47 1.9 °C 1.2 °C 1013.2 hPa Calm     95% 0.0 mm 0 W/m2
21:52 1.9 °C 1.2 °C 1013.2 hPa Calm     95% 0.0 mm 0 W/m2
21:57 1.9 °C 1.2 °C 1013.2 hPa Calm     95% 0.0 mm 0 W/m2
22:02 1.9 °C 1.2 °C 1013.2 hPa Calm     95% 0.0 mm 0 W/m2
22:07 1.9 °C 1.2 °C 1013.2 hPa Calm   1.6 km/h 95% 0.0 mm 0 W/m2
22:12 1.9 °C 1.2 °C 1013.2 hPa Calm     95% 0.0 mm 0 W/m2
22:17 1.9 °C 1.2 °C 1012.9 hPa Calm   4.8 km/h 95% 0.0 mm 0 W/m2
22:22 1.9 °C 1.2 °C 1012.9 hPa Calm   4.8 km/h 95% 0.0 mm 0 W/m2
22:27 1.9 °C 1.2 °C 1012.9 hPa ESE 1.4 km/h 3.2 km/h 95% 0.0 mm 0 W/m2
22:32 2 °C 1.3 °C 1012.9 hPa Calm   4.8 km/h 95% 0.0 mm 0 W/m2
22:37 2 °C 1.3 °C 1012.9 hPa Calm     95% 0.0 mm 0 W/m2
22:42 2 °C 1.3 °C 1012.9 hPa Calm   3.2 km/h 95% 0.0 mm 0 W/m2
22:47 1.9 °C 1.2 °C 1012.9 hPa Calm   4.8 km/h 95% 0.0 mm 0 W/m2
22:52 1.9 °C 1.2 °C 1012.9 hPa Calm   3.2 km/h 95% 0.0 mm 0 W/m2
22:57 1.9 °C 1.2 °C 1012.9 hPa ESE 3.2 km/h 3.2 km/h 95% 0.0 mm 0 W/m2
23:02 1.9 °C 1.2 °C 1012.9 hPa Calm     95% 0.0 mm 0 W/m2
23:07 1.9 °C 1.2 °C 1012.9 hPa Calm     95% 0.0 mm 0 W/m2
23:12 1.9 °C 1.2 °C 1012.9 hPa Calm   3.2 km/h 95% 0.0 mm 0 W/m2
23:17 1.9 °C 1.2 °C 1012.5 hPa Calm   3.2 km/h 95% 0.0 mm 0 W/m2
23:22 1.9 °C 1.2 °C 1012.5 hPa Calm     95% 0.0 mm 0 W/m2
23:27 1.9 °C 1.2 °C 1012.5 hPa Calm   3.2 km/h 95% 0.0 mm 0 W/m2
23:32 1.9 °C 1.2 °C 1012.5 hPa Calm     95% 0.0 mm 0 W/m2
23:37 1.8 °C 1.1 °C 1012.5 hPa Calm     95% 0.0 mm 0 W/m2
23:42 1.8 °C 1.1 °C 1012.5 hPa Calm     95% 0.2 mm 0 W/m2
23:47 1.8 °C 1.1 °C 1012.5 hPa Calm     95% 0.2 mm 0 W/m2
23:52 1.8 °C 1.1 °C 1012.5 hPa Calm     95% 0.5 mm 0 W/m2
23:57 1.7 °C 1 °C 1012.5 hPa Calm     95% 0.5 mm 0 W/m2
Juneau County Weather
Compliments of Weather Underground - 4 mb